createdAt,value
2018-05-02T00:00:26.236Z,58.30
2018-05-02T00:02:56.783Z,58.70
2018-05-02T00:05:27.177Z,58.70
2018-05-02T00:07:57.563Z,58.60
2018-05-02T00:10:28.599Z,58.70
2018-05-02T00:12:58.960Z,58.50
2018-05-02T00:15:30.258Z,58.60
2018-05-02T00:18:00.908Z,58.60
2018-05-02T00:20:32.135Z,58.60
2018-05-02T00:23:02.735Z,58.60
2018-05-02T00:25:33.616Z,58.50
2018-05-02T00:28:04.209Z,58.60
2018-05-02T00:30:34.720Z,59.00
2018-05-02T00:33:05.166Z,59.10
2018-05-02T00:35:35.841Z,59.40
2018-05-02T00:38:06.859Z,59.80
2018-05-02T00:40:37.274Z,59.80
2018-05-02T00:43:07.938Z,59.50
2018-05-02T00:45:38.221Z,59.30
2018-05-02T00:48:08.480Z,59.40
2018-05-02T00:50:39.072Z,59.70
2018-05-02T00:53:09.574Z,59.60
2018-05-02T00:55:40.278Z,59.70
2018-05-02T00:58:10.587Z,59.90
2018-05-02T01:00:41.794Z,59.80
2018-05-02T01:03:12.704Z,59.70
2018-05-02T01:05:43.963Z,59.70
2018-05-02T01:08:15.256Z,59.90
2018-05-02T01:10:46.514Z,60.10
2018-05-02T01:13:16.925Z,60.00
2018-05-02T01:15:48.562Z,60.20
2018-05-02T01:18:19.502Z,60.10
2018-05-02T01:20:50.197Z,60.00
2018-05-02T01:23:22.534Z,59.60
2018-05-02T01:25:52.896Z,59.60
2018-05-02T01:28:23.348Z,59.70
2018-05-02T01:30:53.829Z,60.00
2018-05-02T01:33:24.372Z,60.30
2018-05-02T01:35:54.720Z,60.40
2018-05-02T01:38:25.894Z,60.60
2018-05-02T01:40:56.358Z,61.00
2018-05-02T01:43:26.521Z,61.30
2018-05-02T01:45:58.007Z,61.40
2018-05-02T01:48:28.475Z,60.90
2018-05-02T01:50:59.159Z,61.00
2018-05-02T01:53:29.679Z,61.00
2018-05-02T01:56:00.371Z,61.10
2018-05-02T01:58:31.506Z,61.40
2018-05-02T02:01:02.003Z,61.40
2018-05-02T02:03:32.605Z,62.00
2018-05-02T02:06:02.979Z,62.10
2018-05-02T02:08:33.492Z,62.40
2018-05-02T02:11:04.403Z,61.90
2018-05-02T02:13:34.752Z,61.80
2018-05-02T02:16:05.247Z,61.90
2018-05-02T02:18:36.115Z,62.70
2018-05-02T02:21:06.706Z,63.50
2018-05-02T02:23:38.252Z,62.80
2018-05-02T02:26:10.008Z,62.60
2018-05-02T02:28:41.972Z,62.40
2018-05-02T02:31:13.350Z,62.40
2018-05-02T02:33:44.108Z,62.30
2018-05-02T02:36:14.605Z,62.80
2018-05-02T02:38:46.112Z,63.20
2018-05-02T02:41:16.769Z,63.50
2018-05-02T02:43:47.923Z,64.20
2018-05-02T02:46:19.315Z,63.90
2018-05-02T02:48:49.745Z,63.90
2018-05-02T02:51:21.459Z,64.30
2018-05-02T02:53:52.643Z,64.50
2018-05-02T02:56:23.004Z,64.50
2018-05-02T02:58:53.969Z,63.60
2018-05-02T03:01:25.404Z,63.50
2018-05-02T03:03:56.824Z,63.30
2018-05-02T03:06:27.459Z,63.20
2018-05-02T03:08:58.071Z,63.00
2018-05-02T03:11:29.083Z,62.60
2018-05-02T03:14:00.370Z,62.30
2018-05-02T03:16:31.095Z,61.70
2018-05-02T03:19:02.767Z,61.40
2018-05-02T03:21:33.060Z,61.50
2018-05-02T03:24:04.194Z,61.40
2018-05-02T03:26:35.566Z,61.80
2018-05-02T03:29:06.073Z,61.80
2018-05-02T03:31:37.631Z,61.80
2018-05-02T03:34:08.779Z,61.00
2018-05-02T03:36:39.124Z,61.00
2018-05-02T03:39:10.299Z,61.20
2018-05-02T03:41:41.680Z,61.20
2018-05-02T03:44:12.139Z,61.20
2018-05-02T03:46:42.911Z,61.80
2018-05-02T03:49:13.637Z,61.10
2018-05-02T03:51:44.531Z,61.50
2018-05-02T03:54:14.946Z,61.20
2018-05-02T03:56:45.602Z,61.00
2018-05-02T03:59:16.339Z,61.00
2018-05-02T04:03:59.997Z,60.30
2018-05-02T04:06:38.819Z,60.30
2018-05-02T04:09:10.010Z,60.60
2018-05-02T04:11:41.337Z,61.00
2018-05-02T04:14:12.933Z,60.30
2018-05-02T04:16:43.887Z,60.30
2018-05-02T04:19:14.225Z,60.40
2018-05-02T04:21:44.789Z,60.10
2018-05-02T04:24:16.839Z,60.30
2018-05-02T04:26:47.463Z,60.20
2018-05-02T04:29:17.889Z,60.00
2018-05-02T04:31:48.762Z,60.00
2018-05-02T04:34:20.020Z,59.70
2018-05-02T04:36:53.270Z,59.80
2018-05-02T04:39:23.776Z,60.50
2018-05-02T04:41:54.524Z,59.80
2018-05-02T04:44:25.488Z,59.60
2018-05-02T04:46:55.820Z,59.60
2018-05-02T04:49:27.091Z,59.70
2018-05-02T04:51:58.425Z,59.60
2018-05-02T04:54:29.607Z,59.60
2018-05-02T04:57:00.187Z,60.30
2018-05-02T04:59:31.907Z,59.30
2018-05-02T05:02:02.758Z,59.40
2018-05-02T05:04:33.950Z,59.20
2018-05-02T05:07:05.341Z,59.00
2018-05-02T05:09:44.122Z,58.80
2018-05-02T05:12:16.453Z,58.50
2018-05-02T05:14:49.893Z,59.00
2018-05-02T05:17:24.516Z,58.40
2018-05-02T05:19:57.563Z,58.50
2018-05-02T05:22:29.643Z,58.50
2018-05-02T05:25:06.886Z,58.60
2018-05-02T05:27:38.209Z,61.00
2018-05-02T05:30:09.143Z,55.20
2018-05-02T05:33:49.405Z,50.80
2018-05-02T05:36:20.418Z,46.90
2018-05-02T05:38:50.915Z,42.70
2018-05-02T05:41:21.627Z,41.00
2018-05-02T05:43:54.137Z,40.10
2018-05-02T05:46:27.424Z,39.00
2018-05-02T05:49:05.573Z,38.30
2018-05-02T05:51:36.346Z,37.60
2018-05-02T05:54:07.285Z,38.20
2018-05-02T05:56:38.525Z,36.30
2018-05-02T05:59:10.473Z,35.90
2018-05-02T06:01:42.071Z,35.80
2018-05-02T06:04:24.567Z,35.80
2018-05-02T06:06:55.734Z,36.20
2018-05-02T06:09:32.609Z,37.00
2018-05-02T06:12:03.400Z,37.80
2018-05-02T06:14:34.471Z,38.80
2018-05-02T06:17:05.175Z,39.60
2018-05-02T06:19:35.428Z,41.20
2018-05-02T06:22:07.341Z,42.60
2018-05-02T06:24:39.152Z,45.10
2018-05-02T06:27:10.399Z,47.20
2018-05-02T06:29:41.383Z,49.00
2018-05-02T06:32:13.746Z,52.80
2018-05-02T06:34:45.684Z,54.30
2018-05-02T06:37:17.501Z,54.30
2018-05-02T06:39:48.905Z,54.80
2018-05-02T06:42:20.591Z,55.00
2018-05-02T06:44:53.909Z,55.00
2018-05-02T06:47:25.013Z,55.00
2018-05-02T06:49:58.264Z,55.30
2018-05-02T06:52:30.362Z,55.30
2018-05-02T06:55:02.489Z,56.10
2018-05-02T06:57:34.835Z,57.30
2018-05-02T07:00:05.841Z,56.20
2018-05-02T07:02:37.697Z,55.80
2018-05-02T07:05:08.645Z,56.40
2018-05-02T07:07:40.390Z,55.90
2018-05-02T07:10:11.754Z,55.90
2018-05-02T07:12:43.841Z,55.30
2018-05-02T07:15:15.451Z,55.40
2018-05-02T07:17:46.512Z,55.40
2018-05-02T07:20:26.297Z,54.60
2018-05-02T07:22:57.357Z,54.60
2018-05-02T07:25:28.832Z,54.40
2018-05-02T07:27:59.977Z,53.50
2018-05-02T07:30:32.671Z,52.20
2018-05-02T07:33:05.686Z,51.30
2018-05-02T07:35:37.812Z,51.40
2018-05-02T07:38:08.532Z,50.80
2018-05-02T07:40:40.026Z,49.90
2018-05-02T07:43:12.811Z,49.50
2018-05-02T07:45:45.108Z,48.20
2018-05-02T07:48:23.563Z,48.20
2018-05-02T07:51:01.193Z,46.80
2018-05-02T07:53:33.540Z,46.80
2018-05-02T07:56:06.271Z,46.60
2018-05-02T07:58:37.897Z,47.30
2018-05-02T08:01:08.554Z,46.80
2018-05-02T08:03:40.530Z,45.60
2018-05-02T08:06:13.370Z,45.60
2018-05-02T08:08:47.765Z,46.60
2018-05-02T08:11:18.263Z,46.60
2018-05-02T08:13:50.047Z,47.50
2018-05-02T08:16:20.480Z,46.50
2018-05-02T08:18:51.510Z,46.10
2018-05-02T08:21:23.625Z,45.50
2018-05-02T08:23:55.572Z,44.70
2018-05-02T08:26:27.484Z,46.40
2018-05-02T08:28:58.812Z,46.30
2018-05-02T08:31:31.040Z,45.90
2018-05-02T08:34:02.190Z,45.50
2018-05-02T08:36:38.338Z,45.90
2018-05-02T08:39:08.905Z,45.90
2018-05-02T08:41:40.208Z,45.50
2018-05-02T08:44:12.028Z,44.70
2018-05-02T08:46:43.667Z,45.10
2018-05-02T08:49:16.032Z,45.60
2018-05-02T08:51:48.237Z,45.60
2018-05-02T08:54:22.989Z,45.70
2018-05-02T08:56:54.962Z,45.40
2018-05-02T08:59:26.360Z,44.90
2018-05-02T09:02:00.106Z,45.20
2018-05-02T09:04:31.036Z,44.00
2018-05-02T09:07:02.828Z,43.70
2018-05-02T09:09:37.231Z,43.70
2018-05-02T09:12:08.465Z,43.60
2018-05-02T09:14:39.835Z,43.00
2018-05-02T09:17:10.670Z,41.40
2018-05-02T09:19:42.206Z,41.60
2018-05-02T09:22:14.230Z,41.80
2018-05-02T09:24:47.256Z,41.70
2018-05-02T09:27:18.194Z,42.20
2018-05-02T09:30:00.242Z,41.90
2018-05-02T09:32:33.073Z,42.00
2018-05-02T09:35:07.522Z,43.10
2018-05-02T09:37:39.217Z,43.50
2018-05-02T09:40:09.907Z,43.50
2018-05-02T09:42:41.227Z,43.30
2018-05-02T09:45:12.150Z,42.30
2018-05-02T09:47:43.170Z,41.80
2018-05-02T09:50:14.752Z,41.50
2018-05-02T09:52:45.915Z,40.50
2018-05-02T09:55:24.749Z,40.20
2018-05-02T09:57:59.146Z,40.00
2018-05-02T10:00:31.292Z,40.70
2018-05-02T10:03:02.304Z,40.60
2018-05-02T10:05:34.522Z,40.50
2018-05-02T10:08:12.117Z,41.60
2018-05-02T10:10:52.437Z,41.30
2018-05-02T10:13:28.582Z,41.30
2018-05-02T10:16:08.039Z,40.80
2018-05-02T10:18:39.098Z,41.20
2018-05-02T10:21:11.757Z,40.50
2018-05-02T10:23:45.177Z,40.00
2018-05-02T10:26:42.111Z,40.00
2018-05-02T10:29:20.945Z,39.90
2018-05-02T10:32:01.963Z,39.70
2018-05-02T10:34:40.614Z,40.60
2018-05-02T10:37:17.089Z,41.10
2018-05-02T10:39:57.875Z,41.10
2018-05-02T10:42:29.249Z,41.10
2018-05-02T10:45:04.958Z,40.70
2018-05-02T10:47:40.696Z,39.90
2018-05-02T10:52:59.065Z,40.30
2018-05-02T10:55:44.434Z,39.00
2018-05-02T10:58:20.908Z,38.20
2018-05-02T11:00:55.823Z,38.20
2018-05-02T11:03:30.276Z,38.70
2018-05-02T11:06:04.379Z,39.30
2018-05-02T11:08:35.915Z,39.20
2018-05-02T11:11:07.947Z,39.20
2018-05-02T11:13:39.077Z,38.80
2018-05-02T11:16:10.701Z,37.80
2018-05-02T11:18:44.088Z,37.20
2018-05-02T11:21:17.315Z,36.50
2018-05-02T11:23:48.859Z,36.50
2018-05-02T11:26:22.124Z,36.00
2018-05-02T11:28:52.920Z,36.40
2018-05-02T11:31:24.625Z,36.40
2018-05-02T11:33:56.371Z,36.90
2018-05-02T11:36:28.031Z,36.80
2018-05-02T11:38:59.894Z,36.20
2018-05-02T11:41:31.722Z,35.20
2018-05-02T11:44:03.949Z,35.40
2018-05-02T11:46:35.208Z,35.30
2018-05-02T11:49:12.690Z,35.30
2018-05-02T11:51:46.435Z,34.20
2018-05-02T11:54:29.827Z,34.10
2018-05-02T11:57:07.207Z,35.00
2018-05-02T11:59:40.270Z,36.00
2018-05-02T12:02:15.817Z,36.10
2018-05-02T12:04:50.029Z,36.00
2018-05-02T12:07:27.666Z,36.50
2018-05-02T12:10:00.852Z,36.60
2018-05-02T12:12:32.343Z,37.30
2018-05-02T12:15:03.833Z,36.00
2018-05-02T12:17:36.839Z,35.40
2018-05-02T12:20:08.795Z,35.00
2018-05-02T12:22:41.197Z,35.00
2018-05-02T12:25:13.247Z,35.60
2018-05-02T12:27:49.318Z,35.50
2018-05-02T12:30:21.409Z,34.40
2018-05-02T12:32:53.920Z,34.50
2018-05-02T12:35:27.001Z,34.30
2018-05-02T12:38:01.245Z,34.60
2018-05-02T12:40:33.664Z,34.60
2018-05-02T12:43:04.852Z,34.40
2018-05-02T12:45:38.261Z,34.10
2018-05-02T12:48:10.961Z,33.00
2018-05-02T12:50:48.121Z,33.00
2018-05-02T12:53:19.887Z,32.30
2018-05-02T12:55:53.060Z,31.90
2018-05-02T12:58:25.104Z,33.00
2018-05-02T13:00:58.149Z,33.00
2018-05-02T13:03:33.980Z,33.50
2018-05-02T13:06:06.123Z,33.90
2018-05-02T13:08:40.540Z,34.40
2018-05-02T13:11:14.893Z,34.10
2018-05-02T13:13:46.009Z,34.10
2018-05-02T13:16:20.652Z,35.20
2018-05-02T13:18:55.980Z,34.80
2018-05-02T13:21:29.821Z,34.20
2018-05-02T13:24:02.886Z,35.80
